Time;durP1;ratioP1;P1;durP2;ratioP2;P2;SDS_P1;SDS_P2;PMS_P1;PMS_P2;Temp;Humidity;BMP_temperature;BMP_pressure;BME280_temperature;BME280_humidity;BME280_pressure;Samples;Min_cycle;Max_cycle;Signal;HPM_P1;HPM_P2
2021/03/17 00:02:42;;;;;;;2.40;1.60;;;;;;;9.75;22.37;100611.78;5041392;28;20160;-73
2021/03/17 00:05:30;;;;;;;3.42;1.60;;;;;;;10.00;21.66;100614.22;5045479;28;20047;-72
2021/03/17 00:08:20;;;;;;;1.55;1.35;;;;;;;10.00;21.78;100609.00;5040822;28;20051;-73
2021/03/17 00:11:06;;;;;;;2.05;1.65;;;;;;;9.87;21.94;100606.94;5040472;28;20433;-74
2021/03/17 00:13:50;;;;;;;2.85;1.40;;;;;;;9.85;21.63;100602.69;5041190;28;20147;-75
2021/03/17 00:16:36;;;;;;;1.63;1.48;;;;;;;9.89;21.38;100610.31;5042965;28;20075;-75
2021/03/17 00:19:21;;;;;;;3.33;1.60;;;;;;;9.83;20.74;100610.56;5042851;28;20514;-73
2021/03/17 00:22:07;;;;;;;;;;;;;;;9.98;20.37;100615.13;5040776;28;20051;-72
2021/03/17 00:24:52;;;;;;;;;;;;;;;9.93;20.53;100606.66;5041791;28;20059;-73
2021/03/17 00:27:37;;;;;;;1.48;1.38;;;;;;;9.82;21.49;100603.66;5044207;28;20279;-72
2021/03/17 00:30:22;;;;;;;3.30;1.50;;;;;;;9.76;21.63;100597.88;5044787;28;20056;-71
2021/03/17 00:33:10;;;;;;;2.45;1.40;;;;;;;9.53;23.86;100601.38;5040627;28;20616;-69
2021/03/17 00:35:55;;;;;;;1.45;1.17;;;;;;;9.50;24.37;100607.56;5043208;28;20942;-73
2021/03/17 00:38:41;;;;;;;1.50;1.40;;;;;;;9.27;24.66;100603.28;5045278;28;20402;-72
2021/03/17 00:41:26;;;;;;;2.05;1.45;;;;;;;9.11;24.77;100600.44;5041001;28;20048;-72
2021/03/17 00:44:11;;;;;;;1.45;1.30;;;;;;;9.22;23.80;100602.63;5042435;28;20549;-71
2021/03/17 00:46:57;;;;;;;1.67;1.33;;;;;;;9.32;23.26;100597.88;5036555;28;20060;-72
2021/03/17 00:49:27;;;;;;;1.63;1.27;;;;;;;9.33;23.00;100600.44;5039290;28;20114;-70
2021/03/17 00:51:56;;;;;;;1.40;1.30;;;;;;;9.43;23.18;100606.13;5039268;28;20051;-72
2021/03/17 00:54:41;;;;;;;2.17;1.20;;;;;;;9.19;23.45;100598.34;5043332;28;20086;-71
2021/03/17 00:57:27;;;;;;;2.70;1.17;;;;;;;9.28;23.97;100599.78;5044271;28;20090;-71
2021/03/17 00:59:53;;;;;;;3.25;1.40;;;;;;;9.19;23.48;100593.16;5043440;28;20055;-71
2021/03/17 01:02:20;;;;;;;1.60;1.35;;;;;;;9.14;24.05;100591.63;5038952;28;20136;-71
2021/03/17 01:04:46;;;;;;;1.35;1.25;;;;;;;9.05;24.05;100590.22;5043043;28;20486;-71
2021/03/17 01:07:16;;;;;;;1.27;1.15;;;;;;;9.11;24.81;100589.19;5041310;28;20064;-71
2021/03/17 01:09:42;;;;;;;2.75;1.08;;;;;;;9.08;24.49;100586.69;5037240;28;20041;-71
2021/03/17 01:12:09;;;;;;;4.22;1.75;;;;;;;8.85;24.77;100582.34;5044710;28;20064;-71
2021/03/17 01:14:42;;;;;;;1.73;1.27;;;;;;;8.85;24.90;100584.97;5040137;28;20124;-70
2021/03/17 01:17:09;;;;;;;1.67;0.90;;;;;;;8.85;25.91;100580.59;5041765;28;20500;-70
2021/03/17 01:19:36;;;;;;;1.33;1.00;;;;;;;8.90;25.01;100581.28;5036636;28;20065;-70
2021/03/17 01:22:03;;;;;;;1.08;1.05;;;;;;;8.79;25.66;100578.25;5043210;28;20037;-71
2021/03/17 01:24:31;;;;;;;1.98;1.50;;;;;;;8.81;25.85;100578.19;5040459;28;20506;-70
2021/03/17 01:26:58;;;;;;;1.50;1.40;;;;;;;8.71;25.46;100575.06;5042089;28;20045;-71
2021/03/17 01:29:25;;;;;;;2.60;1.75;;;;;;;8.71;25.86;100572.47;5041874;28;20045;-71
2021/03/17 01:31:51;;;;;;;1.27;1.10;;;;;;;8.70;25.34;100564.72;5045858;28;20049;-71
2021/03/17 01:34:18;;;;;;;1.38;1.27;;;;;;;8.77;24.66;100569.63;5041470;28;20111;-70
2021/03/17 01:36:44;;;;;;;3.47;1.40;;;;;;;8.74;25.69;100563.72;5041761;28;20731;-70
2021/03/17 01:39:11;;;;;;;1.45;1.30;;;;;;;8.81;26.05;100568.63;5041228;28;20044;-70
2021/03/17 01:41:37;;;;;;;1.38;1.27;;;;;;;8.75;26.19;100561.06;5043773;28;20044;-70
2021/03/17 01:44:04;;;;;;;1.95;1.60;;;;;;;8.65;26.50;100557.94;5044209;28;20116;-70
2021/03/17 01:46:31;;;;;;;1.50;1.10;;;;;;;8.80;25.54;100559.13;5040825;28;20156;-70
2021/03/17 01:48:57;;;;;;;2.47;1.60;;;;;;;8.77;25.31;100556.63;5042103;28;20462;-72
2021/03/17 01:51:24;;;;;;;1.25;1.15;;;;;;;8.71;25.45;100549.06;5038710;28;20298;-70
2021/03/17 01:53:50;;;;;;;2.33;1.48;;;;;;;8.70;24.99;100549.13;5035967;28;20124;-70
2021/03/17 01:56:17;;;;;;;2.20;1.30;;;;;;;8.64;25.13;100550.22;5043290;28;20068;-70
2021/03/17 01:58:45;;;;;;;2.03;1.50;;;;;;;8.58;25.23;100542.66;5043258;28;20048;-71
2021/03/17 02:01:13;;;;;;;1.20;1.10;;;;;;;8.44;26.13;100548.34;5038261;28;20048;-72
2021/03/17 02:03:40;;;;;;;1.42;1.33;;;;;;;8.33;26.37;100548.69;5038255;28;20036;-71
2021/03/17 02:06:06;;;;;;;1.38;1.27;;;;;;;8.36;25.56;100548.63;5044585;28;20124;-70
2021/03/17 02:08:37;;;;;;;1.40;1.25;;;;;;;8.44;25.09;100543.16;5044685;28;20087;-71
2021/03/17 02:11:05;;;;;;;1.40;1.30;;;;;;;8.55;24.26;100543.59;5051615;28;20052;-69
2021/03/17 02:13:52;;;;;;;1.90;1.55;;;;;;;8.53;24.84;100534.19;5046492;28;20128;-70
2021/03/17 02:16:37;;;;;;;1.40;1.23;;;;;;;8.52;24.54;100533.34;5051641;28;20120;-68
2021/03/17 02:19:13;;;;;;;2.78;1.30;;;;;;;8.56;23.65;100534.03;5048231;28;20504;-68
2021/03/17 02:22:08;;;;;;;1.20;1.10;;;;;;;8.61;23.74;100521.72;5049483;28;20446;-68
2021/03/17 02:24:45;;;;;;;1.40;1.30;;;;;;;8.56;23.97;100523.66;5036773;28;20079;-68
2021/03/17 02:27:23;;;;;;;0.90;0.90;;;;;;;8.78;23.61;100524.53;5045672;28;20160;-68
2021/03/17 02:30:17;;;;;;;1.33;1.23;;;;;;;8.57;24.16;100517.53;5051311;28;20044;-70
2021/03/17 02:33:21;;;;;;;1.15;1.05;;;;;;;8.64;23.90;100517.28;5046977;28;20038;-69
2021/03/17 02:35:54;;;;;;;1.13;1.10;;;;;;;8.53;25.33;100516.84;5050538;28;20517;-71
2021/03/17 02:38:24;;;;;;;1.20;1.10;;;;;;;8.48;24.90;100516.16;5051259;28;20119;-71
2021/03/17 02:40:56;;;;;;;2.45;1.58;;;;;;;8.47;24.81;100514.47;5051501;28;20048;-70
2021/03/17 02:43:32;;;;;;;1.77;1.67;;;;;;;8.39;24.66;100509.53;5050641;28;20407;-70
2021/03/17 02:46:06;;;;;;;2.35;1.25;;;;;;;8.28;25.74;100506.44;5051079;28;20115;-70
2021/03/17 02:48:42;;;;;;;5.35;1.40;;;;;;;8.18;26.27;100497.28;5051395;28;20124;-72
2021/03/17 02:51:30;;;;;;;1.63;1.50;;;;;;;8.16;26.00;100500.88;5051740;28;20431;-71
2021/03/17 02:54:00;;;;;;;3.30;1.60;;;;;;;7.97;26.20;100503.25;5051288;28;20380;-74
2021/03/17 02:56:29;;;;;;;3.58;1.83;;;;;;;7.94;26.78;100500.78;5044950;28;20041;-73
2021/03/17 02:58:57;;;;;;;2.45;1.40;;;;;;;8.05;25.91;100496.06;5051831;28;20082;-72
2021/03/17 03:01:25;;;;;;;1.77;1.40;;;;;;;8.25;25.65;100498.75;5051229;28;20041;-71
2021/03/17 03:03:51;;;;;;;1.40;1.20;;;;;;;8.01;25.86;100504.84;5044475;28;20476;-69
2021/03/17 03:06:18;;;;;;;2.05;1.73;;;;;;;8.05;26.06;100501.25;5050576;28;20049;-71
2021/03/17 03:08:45;;;;;;;1.17;1.17;;;;;;;7.84;27.27;100501.09;5051361;28;20037;-71
2021/03/17 03:11:18;;;;;;;1.45;1.35;;;;;;;7.83;27.33;100495.97;5050275;28;20120;-70
2021/03/17 03:13:44;;;;;;;3.17;1.67;;;;;;;7.75;27.67;100497.97;5050493;28;20041;-71
2021/03/17 03:16:14;;;;;;;1.80;1.50;;;;;;;7.79;28.39;100489.19;5048499;28;20083;-72
2021/03/17 03:18:45;;;;;;;5.18;1.40;;;;;;;7.81;27.75;100497.75;5045874;28;20045;-70
2021/03/17 03:21:18;;;;;;;1.67;1.30;;;;;;;7.68;28.93;100491.31;5050872;28;20141;-71
2021/03/17 03:23:47;;;;;;;1.60;1.27;;;;;;;7.74;28.04;100494.53;5049472;28;20102;-72
2021/03/17 03:26:17;;;;;;;4.10;1.60;;;;;;;7.71;27.14;100492.03;5050394;28;20128;-71
2021/03/17 03:28:45;;;;;;;2.10;1.42;;;;;;;7.76;27.20;100486.69;5051368;28;20040;-70
2021/03/17 03:31:12;;;;;;;1.50;1.40;;;;;;;7.75;27.83;100495.38;5049697;28;20041;-71
2021/03/17 03:33:38;;;;;;;1.95;1.50;;;;;;;7.61;27.28;100491.47;5045945;28;20061;-70
2021/03/17 03:36:05;;;;;;;2.03;1.50;;;;;;;7.78;27.79;100493.53;5050665;28;20056;-71
2021/03/17 03:38:32;;;;;;;2.20;1.50;;;;;;;7.72;28.00;100496.31;5051653;28;20043;-71
2021/03/17 03:40:59;;;;;;;1.75;1.40;;;;;;;7.75;26.89;100491.03;5051126;28;20436;-72
2021/03/17 03:43:26;;;;;;;4.40;1.38;;;;;;;7.63;28.08;100494.06;5055166;28;20087;-70
2021/03/17 03:45:53;;;;;;;1.35;1.20;;;;;;;7.50;27.98;100492.75;5054819;28;20049;-71
2021/03/17 03:48:21;;;;;;;3.17;1.45;;;;;;;7.52;28.22;100491.81;5054974;28;20044;-71
2021/03/17 03:50:49;;;;;;;2.15;1.50;;;;;;;7.51;28.36;100495.31;5054963;28;20420;-70
2021/03/17 03:53:19;;;;;;;6.13;1.90;;;;;;;7.49;28.42;100491.06;5054734;28;20075;-70
2021/03/17 03:56:02;;;;;;;1.63;1.52;;;;;;;7.46;29.09;100491.19;5054411;28;20049;-70
2021/03/17 03:58:32;;;;;;;3.42;2.17;;;;;;;7.40;28.96;100492.19;5054906;28;20113;-70
2021/03/17 04:01:14;;;;;;;2.33;2.13;;;;;;;7.36;29.33;100490.63;5054941;28;20099;-70
2021/03/17 04:03:44;;;;;;;1.40;1.30;;;;;;;7.42;28.43;100495.59;5054983;28;20460;-70
2021/03/17 04:06:12;;;;;;;4.53;3.03;;;;;;;7.33;28.55;100496.75;5055070;28;20045;-69
2021/03/17 04:08:43;;;;;;;4.15;1.70;;;;;;;7.32;29.10;100502.00;5054492;28;20061;-69
2021/03/17 04:11:11;;;;;;;1.85;1.52;;;;;;;7.29;29.24;100500.34;5054840;28;20052;-69
2021/03/17 04:13:40;;;;;;;1.77;1.60;;;;;;;7.41;28.71;100503.44;5054190;28;20065;-70
2021/03/17 04:16:07;;;;;;;2.03;1.70;;;;;;;7.59;26.83;100502.81;5054829;28;20041;-69
2021/03/17 04:18:39;;;;;;;2.10;1.83;;;;;;;7.64;27.16;100500.94;5053839;28;20072;-70
2021/03/17 04:21:12;;;;;;;1.60;1.50;;;;;;;7.59;26.41;100502.81;5048443;28;20067;-70
2021/03/17 04:23:42;;;;;;;4.45;1.70;;;;;;;7.45;27.69;100508.47;5054009;28;20087;-71
2021/03/17 04:26:11;;;;;;;4.43;1.52;;;;;;;7.08;27.53;100514.84;5054312;28;20037;-69
2021/03/17 04:28:40;;;;;;;1.80;1.63;;;;;;;7.07;28.55;100510.53;5054265;28;20037;-70
2021/03/17 04:31:07;;;;;;;2.00;1.50;;;;;;;7.00;28.53;100508.19;5054491;28;20120;-70
2021/03/17 04:33:35;;;;;;;2.63;1.35;;;;;;;7.02;29.21;100509.00;5053818;28;20565;-70
2021/03/17 04:36:03;;;;;;;1.85;1.40;;;;;;;6.97;29.65;100513.47;5053980;28;20048;-71
2021/03/17 04:38:30;;;;;;;1.92;1.67;;;;;;;6.93;29.52;100512.72;5054505;28;20154;-73
2021/03/17 04:40:57;;;;;;;1.35;1.25;;;;;;;6.88;29.31;100508.59;5053738;28;20048;-72
2021/03/17 04:43:24;;;;;;;1.80;1.58;;;;;;;7.03;29.81;100513.28;5054153;28;20128;-72
2021/03/17 04:45:52;;;;;;;1.73;1.42;;;;;;;6.97;30.07;100513.47;5053687;28;20041;-71
2021/03/17 04:48:21;;;;;;;1.58;1.48;;;;;;;6.92;30.17;100511.00;5053747;28;20037;-73
2021/03/17 04:50:50;;;;;;;1.40;1.30;;;;;;;6.90;30.91;100509.38;5053908;28;20487;-73
2021/03/17 04:53:17;;;;;;;4.78;1.80;;;;;;;6.89;30.98;100515.47;5053585;28;20083;-72
2021/03/17 04:55:44;;;;;;;3.33;2.20;;;;;;;7.05;30.71;100501.97;5053137;28;20037;-72
2021/03/17 04:58:15;;;;;;;1.70;1.40;;;;;;;7.00;30.53;100508.19;5049500;28;20041;-71
2021/03/17 05:00:45;;;;;;;3.05;1.60;;;;;;;6.94;31.05;100498.88;5053793;28;20400;-70
2021/03/17 05:03:14;;;;;;;2.72;1.60;;;;;;;6.96;30.13;100504.84;5052900;28;20463;-71
2021/03/17 05:05:42;;;;;;;3.63;1.67;;;;;;;7.04;30.67;100499.44;5053468;28;20040;-71
2021/03/17 05:08:12;;;;;;;4.18;1.45;;;;;;;6.94;30.52;100495.44;5052849;28;20128;-70
2021/03/17 05:10:39;;;;;;;1.95;1.58;;;;;;;7.17;28.41;100492.09;5053412;28;20116;-71
2021/03/17 05:13:09;;;;;;;1.63;1.50;;;;;;;7.31;28.85;100495.13;5052804;28;20084;-71
2021/03/17 05:15:37;;;;;;;2.00;1.50;;;;;;;7.15;30.37;100486.13;5053769;28;20036;-77
2021/03/17 05:18:06;;;;;;;5.03;1.92;;;;;;;7.15;30.16;100486.97;5052416;28;20045;-73
2021/03/17 05:20:33;;;;;;;1.92;1.50;;;;;;;7.01;29.92;100494.34;5044770;28;20123;-72
2021/03/17 05:23:01;;;;;;;2.75;1.50;;;;;;;7.07;30.87;100489.81;5051420;28;20171;-70
2021/03/17 05:25:28;;;;;;;4.93;1.58;;;;;;;6.96;30.98;100494.47;5051025;28;21134;-70
2021/03/17 05:28:03;;;;;;;3.00;1.48;;;;;;;6.98;31.81;100490.13;5052278;28;20041;-71
2021/03/17 05:30:36;;;;;;;3.88;1.70;;;;;;;6.82;31.92;100497.50;5051860;28;20044;-70
2021/03/17 05:33:06;;;;;;;2.05;1.50;;;;;;;6.85;32.21;100495.72;5052044;28;20041;-70
2021/03/17 05:35:33;;;;;;;6.57;2.20;;;;;;;6.86;32.17;100494.81;5052233;28;20044;-69
2021/03/17 05:38:01;;;;;;;3.22;2.70;;;;;;;6.86;32.14;100489.63;5052334;28;20041;-70
2021/03/17 05:40:28;;;;;;;2.70;2.50;;;;;;;6.80;32.47;100490.66;5050737;28;20072;-68
2021/03/17 05:42:59;;;;;;;2.10;2.00;;;;;;;6.91;32.11;100487.75;5051424;28;20418;-71
2021/03/17 05:45:27;;;;;;;4.22;2.38;;;;;;;6.95;31.91;100495.38;5052725;28;20037;-71
2021/03/17 05:48:07;;;;;;;2.80;2.20;;;;;;;6.97;32.02;100487.53;5050664;28;20041;-69
2021/03/17 05:50:34;;;;;;;11.02;2.50;;;;;;;7.51;30.86;100486.66;5052576;28;20047;-68
2021/03/17 05:53:01;;;;;;;6.28;2.50;;;;;;;7.60;31.26;100483.75;5050859;28;20577;-69
2021/03/17 05:55:27;;;;;;;7.18;4.03;;;;;;;7.70;30.46;100489.50;5050743;28;20106;-63
2021/03/17 05:57:57;;;;;;;3.78;3.47;;;;;;;8.28;29.61;100497.81;5049776;28;20065;-70
2021/03/17 06:00:24;;;;;;;4.95;2.60;;;;;;;8.17;29.47;100489.56;5049017;28;20132;-62
2021/03/17 06:02:52;;;;;;;7.95;2.47;;;;;;;8.39;29.70;100488.75;5043247;28;20045;-64
2021/03/17 06:05:20;;;;;;;3.58;2.28;;;;;;;8.77;29.20;100485.59;5046766;28;20091;-65
2021/03/17 06:08:04;;;;;;;4.00;1.90;;;;;;;8.86;29.04;100488.72;5048736;28;20037;-65
2021/03/17 06:10:33;;;;;;;11.73;2.13;;;;;;;9.18;28.54;100497.84;5049538;28;20041;-66
2021/03/17 06:13:14;;;;;;;7.05;3.75;;;;;;;9.58;28.03;100487.53;5050415;28;20120;-66
2021/03/17 06:15:52;;;;;;;11.25;4.03;;;;;;;9.84;27.90;100492.47;5051220;28;20128;-65
2021/03/17 06:18:56;;;;;;;6.53;3.95;;;;;;;10.57;26.46;100490.16;5048034;28;20126;-67
2021/03/17 06:21:24;;;;;;;6.95;2.97;;;;;;;10.41;27.23;100493.47;5049719;28;20087;-73
2021/03/17 06:23:51;;;;;;;5.72;2.22;;;;;;;10.85;26.45;100502.75;5050133;28;20061;-73
2021/03/17 06:26:18;;;;;;;7.57;3.17;;;;;;;11.23;26.82;100493.94;5050488;28;20037;-72
2021/03/17 06:28:46;;;;;;;6.18;2.50;;;;;;;11.75;26.50;100496.56;5051457;28;20116;-70
2021/03/17 06:31:19;;;;;;;6.63;1.98;;;;;;;11.79;25.68;100498.09;5048756;28;20539;-70
2021/03/17 06:33:47;;;;;;;7.35;1.95;;;;;;;12.35;24.38;100497.88;5047262;28;20127;-70
2021/03/17 06:36:17;;;;;;;5.80;2.10;;;;;;;12.83;24.20;100507.44;5049301;28;20041;-70
2021/03/17 06:38:45;;;;;;;4.20;1.83;;;;;;;13.00;23.89;100502.13;5049930;28;20082;-69
2021/03/17 06:41:13;;;;;;;5.43;1.85;;;;;;;13.68;23.78;100495.66;5045611;28;20072;-74
2021/03/17 06:43:40;;;;;;;5.72;1.92;;;;;;;14.07;23.78;100495.94;5048523;28;20123;-73
2021/03/17 06:46:09;;;;;;;4.82;1.88;;;;;;;14.49;22.30;100503.88;5045125;28;20050;-73
2021/03/17 06:48:55;;;;;;;5.53;1.58;;;;;;;14.80;22.62;100506.28;5043918;28;20045;-67
2021/03/17 06:51:22;;;;;;;2.20;1.50;;;;;;;15.38;21.48;100504.28;5047389;28;20057;-69
2021/03/17 06:53:53;;;;;;;7.60;2.08;;;;;;;15.67;21.49;100500.63;5047089;28;20049;-72
2021/03/17 06:56:21;;;;;;;6.43;2.10;;;;;;;16.08;20.11;100498.75;5047485;28;20049;-72
2021/03/17 06:58:56;;;;;;;8.95;1.83;;;;;;;16.19;20.22;100502.34;5047748;28;20395;-72
2021/03/17 07:01:43;;;;;;;10.50;2.03;;;;;;;15.76;21.36;100498.31;5048606;28;20102;-73
2021/03/17 07:04:22;;;;;;;12.98;2.20;;;;;;;16.74;21.29;100508.16;5048074;28;20059;-71
2021/03/17 07:07:02;;;;;;;10.88;3.78;;;;;;;17.52;20.81;100505.06;5044858;28;20083;-70
2021/03/17 07:09:31;;;;;;;8.45;2.92;;;;;;;17.78;20.58;100501.31;5048232;28;20045;-71
2021/03/17 07:12:08;;;;;;;10.30;3.22;;;;;;;17.80;20.94;100502.06;5050845;28;20044;-70
2021/03/17 07:14:40;;;;;;;6.25;3.67;;;;;;;18.63;19.42;100495.59;5051334;28;20076;-71
2021/03/17 07:17:30;;;;;;;7.75;3.35;;;;;;;19.21;18.41;100492.72;5052924;28;20075;-70
2021/03/17 07:19:57;;;;;;;15.20;3.08;;;;;;;19.26;18.55;100491.38;5053378;28;20037;-67
2021/03/17 07:22:24;;;;;;;6.47;2.28;;;;;;;19.47;16.47;100486.13;5055383;28;20041;-66
2021/03/17 07:25:09;;;;;;;10.18;2.88;;;;;;;18.74;15.02;100494.78;5054443;28;20389;-67
2021/03/17 07:27:35;;;;;;;2.72;1.48;;;;;;;19.63;13.96;100489.19;5053885;28;20459;-69
2021/03/17 07:30:02;;;;;;;1.45;1.30;;;;;;;20.04;13.65;100487.50;5048839;28;20067;-68
2021/03/17 07:33:03;;;;;;;2.17;1.20;;;;;;;20.16;12.75;100488.25;5051936;28;20123;-70
2021/03/17 07:35:35;;;;;;;1.48;1.13;;;;;;;20.25;13.24;100487.47;5049994;28;20146;-69
2021/03/17 07:38:08;;;;;;;2.13;1.02;;;;;;;20.45;12.88;100480.41;5053158;28;20121;-70
2021/03/17 07:40:37;;;;;;;1.58;0.95;;;;;;;20.42;13.08;100486.81;5051922;28;20168;-71
2021/03/17 07:43:08;;;;;;;3.65;1.02;;;;;;;20.03;12.96;100485.00;5052840;28;20806;-70
2021/03/17 07:45:36;;;;;;;2.58;1.02;;;;;;;20.33;12.53;100479.66;5053074;28;20460;-68
2021/03/17 07:48:04;;;;;;;2.75;1.20;;;;;;;20.65;12.76;100486.63;5047942;28;20233;-70
2021/03/17 07:50:33;;;;;;;3.45;1.75;;;;;;;20.88;12.54;100487.25;5051652;28;20044;-68
2021/03/17 07:53:03;;;;;;;2.63;1.02;;;;;;;20.19;12.68;100482.69;5047932;28;20045;-67
2021/03/17 07:55:33;;;;;;;0.93;0.90;;;;;;;20.32;13.17;100491.25;5050468;28;20037;-68
2021/03/17 07:58:01;;;;;;;3.20;1.60;;;;;;;19.94;13.55;100491.91;5044471;28;20051;-68
2021/03/17 08:00:27;;;;;;;2.45;2.20;;;;;;;20.02;13.63;100492.06;5048268;28;20120;-68
2021/03/17 08:02:56;;;;;;;1.33;1.00;;;;;;;21.15;12.82;100487.44;5046162;28;20037;-67
2021/03/17 08:05:27;;;;;;;6.95;1.30;;;;;;;21.25;12.64;100487.41;5052623;28;20515;-68
2021/03/17 08:07:53;;;;;;;3.63;0.93;;;;;;;21.52;12.68;100483.22;5050094;28;20041;-67
2021/03/17 08:10:21;;;;;;;1.20;1.05;;;;;;;21.26;12.74;100496.22;5045060;28;20466;-66
2021/03/17 08:12:48;;;;;;;1.23;1.00;;;;;;;21.17;13.01;100492.56;5048331;28;20041;-68
2021/03/17 08:15:16;;;;;;;3.90;1.25;;;;;;;21.23;12.88;100494.66;5047064;28;20555;-67
2021/03/17 08:17:43;;;;;;;28.88;2.92;;;;;;;21.15;12.70;100495.38;5047170;28;20049;-70
2021/03/17 08:20:28;;;;;;;1.63;1.33;;;;;;;20.98;12.47;100492.56;5047131;28;20041;-68
2021/03/17 08:22:57;;;;;;;2.25;1.38;;;;;;;21.20;12.10;100497.63;5035866;28;20071;-66
2021/03/17 08:25:44;;;;;;;4.75;1.00;;;;;;;20.73;12.62;100486.81;5041675;28;20037;-66
2021/03/17 08:28:25;;;;;;;4.00;1.50;;;;;;;21.10;12.27;100489.66;5044894;28;20142;-66
2021/03/17 08:30:53;;;;;;;4.38;1.02;;;;;;;21.36;12.33;100481.16;5044044;28;20051;-66
2021/03/17 08:33:39;;;;;;;5.28;1.77;;;;;;;21.32;12.53;100493.88;5050553;28;20072;-67
2021/03/17 08:36:11;;;;;;;1.38;1.15;;;;;;;22.40;12.34;100477.56;5050368;28;20060;-67
2021/03/17 08:38:54;;;;;;;5.70;1.50;;;;;;;22.16;12.74;100483.41;5048944;28;20135;-67
2021/03/17 08:41:41;;;;;;;2.78;1.40;;;;;;;22.98;11.94;100477.25;5048179;28;20048;-66
2021/03/17 08:44:20;;;;;;;7.28;1.10;;;;;;;22.68;12.30;100490.84;5043987;28;20051;-67
2021/03/17 08:46:48;;;;;;;3.38;1.25;;;;;;;22.14;11.67;100487.19;5049227;28;20052;-66
2021/03/17 08:49:37;;;;;;;1.88;1.38;;;;;;;22.92;11.56;100485.81;5036425;28;20377;-67
2021/03/17 08:52:14;;;;;;;1.20;1.10;;;;;;;22.83;11.84;100484.03;5037886;28;20076;-67
2021/03/17 08:54:44;;;;;;;1.80;1.23;;;;;;;22.40;11.54;100482.88;5042541;28;20041;-67
2021/03/17 08:57:13;;;;;;;4.32;1.13;;;;;;;22.93;11.58;100482.19;5045419;28;20131;-65
2021/03/17 08:59:49;;;;;;;1.08;1.02;;;;;;;23.84;11.01;100473.97;5034734;28;20033;-68
2021/03/17 09:02:43;;;;;;;1.33;1.13;;;;;;;23.57;11.18;100479.41;5039998;28;20057;-69
2021/03/17 09:05:19;;;;;;;3.40;1.85;;;;;;;21.87;12.32;100478.16;5044534;28;20045;-72
2021/03/17 09:08:05;;;;;;;1.65;1.30;;;;;;;21.85;12.10;100476.63;5049267;28;20055;-70
2021/03/17 09:10:46;;;;;;;4.40;2.20;;;;;;;20.26;13.57;100485.66;5041951;28;20052;-69
2021/03/17 09:13:15;;;;;;;2.42;2.08;;;;;;;20.88;13.43;100485.44;5048550;28;20431;-71
2021/03/17 09:15:49;;;;;;;1.92;1.60;;;;;;;20.43;13.58;100482.38;5050075;28;20400;-71
2021/03/17 09:18:20;;;;;;;2.40;1.52;;;;;;;20.58;13.54;100488.16;5049382;28;20053;-70
2021/03/17 09:20:57;;;;;;;1.58;1.40;;;;;;;19.35;14.45;100479.22;5042337;28;20044;-68
2021/03/17 09:23:38;;;;;;;1.70;1.60;;;;;;;18.90;14.37;100481.19;5045975;28;20037;-69
2021/03/17 09:26:06;;;;;;;1.80;1.08;;;;;;;18.14;15.41;100481.00;5041037;28;20069;-70
2021/03/17 09:28:35;;;;;;;7.00;2.13;;;;;;;17.95;15.60;100481.59;5037364;28;20045;-71
2021/03/17 09:31:08;;;;;;;1.23;1.10;;;;;;;17.31;15.38;100483.81;5031892;28;20152;-73
2021/03/17 09:33:43;;;;;;;1.92;1.17;;;;;;;17.19;15.40;100482.91;5038362;28;20037;-70
2021/03/17 09:36:13;;;;;;;4.72;1.80;;;;;;;17.53;15.79;100475.13;5040812;28;20052;-70
2021/03/17 09:38:50;;;;;;;6.50;1.65;;;;;;;17.45;16.13;100480.13;5034795;28;20522;-69
2021/03/17 09:41:19;;;;;;;1.08;1.08;;;;;;;17.15;16.11;100475.31;5045053;28;20071;-67
2021/03/17 09:44:06;;;;;;;2.88;1.60;;;;;;;17.22;16.07;100474.78;5042379;28;20052;-69
2021/03/17 09:46:41;;;;;;;4.20;1.58;;;;;;;17.11;16.13;100463.34;5043859;28;20045;-68
2021/03/17 09:49:16;;;;;;;5.45;1.70;;;;;;;16.29;16.37;100470.94;5037135;28;20578;-75
2021/03/17 09:51:45;;;;;;;2.47;2.03;;;;;;;16.21;17.00;100466.22;5040070;28;20049;-72
2021/03/17 09:54:13;;;;;;;3.92;3.53;;;;;;;15.97;17.59;100466.13;5040706;28;20114;-77
2021/03/17 09:56:48;;;;;;;3.30;1.70;;;;;;;16.03;16.88;100466.66;5046933;28;20555;-73
2021/03/17 09:59:31;;;;;;;16.58;11.90;;;;;;;15.94;17.10;100462.91;5047888;28;20052;-75
2021/03/17 10:02:17;;;;;;;12.18;5.10;;;;;;;16.18;17.88;100462.97;5039602;28;20098;-73
2021/03/17 10:04:46;;;;;;;15.32;11.63;;;;;;;16.35;16.81;100464.41;5044208;28;20041;-76
2021/03/17 10:07:19;;;;;;;5.75;4.25;;;;;;;16.54;16.76;100462.16;5045344;28;20446;-75
2021/03/17 10:09:47;;;;;;;5.53;2.22;;;;;;;16.44;16.12;100458.50;5043315;28;20052;-75
2021/03/17 10:12:16;;;;;;;1.33;1.25;;;;;;;16.22;16.13;100451.28;5037071;28;21008;-73
2021/03/17 10:14:54;;;;;;;1.73;1.63;;;;;;;16.42;14.89;100455.16;5034811;28;20499;-75
2021/03/17 10:17:23;;;;;;;1.00;0.90;;;;;;;16.20;14.28;100456.66;5040209;28;20061;-75
2021/03/17 10:19:53;;;;;;;2.85;1.40;;;;;;;16.31;15.64;100453.28;5046600;28;20577;-78
2021/03/17 10:22:21;;;;;;;5.35;1.65;;;;;;;16.22;15.68;100446.88;5047916;28;20076;-76
2021/03/17 10:24:51;;;;;;;2.08;1.42;;;;;;;16.28;15.56;100447.38;5039736;28;20123;-76
2021/03/17 10:27:20;;;;;;;1.95;1.55;;;;;;;16.21;15.73;100444.34;5040801;28;20057;-76
2021/03/17 10:29:50;;;;;;;3.53;1.73;;;;;;;15.99;15.40;100439.75;5037308;28;20048;-66
2021/03/17 10:32:21;;;;;;;2.45;2.17;;;;;;;15.93;16.10;100441.03;5039958;28;20127;-67
2021/03/17 10:34:49;;;;;;;1.92;1.40;;;;;;;15.94;16.05;100433.97;5044177;28;20071;-71
2021/03/17 10:37:21;;;;;;;3.63;1.40;;;;;;;16.00;16.36;100432.72;5046757;28;20083;-70
2021/03/17 10:39:49;;;;;;;2.40;1.40;;;;;;;16.13;16.38;100434.34;5046085;28;20128;-72
2021/03/17 10:42:18;;;;;;;4.82;1.63;;;;;;;15.88;16.24;100423.88;5048923;28;20051;-72
2021/03/17 10:44:59;;;;;;;2.03;1.67;;;;;;;16.00;16.46;100424.81;5047133;28;20041;-71
2021/03/17 10:47:27;;;;;;;1.50;1.38;;;;;;;16.19;15.84;100418.16;5048683;28;20076;-70
2021/03/17 10:49:54;;;;;;;1.73;1.40;;;;;;;16.09;15.91;100419.75;5049357;28;20076;-71
2021/03/17 10:52:31;;;;;;;3.30;2.53;;;;;;;15.97;16.14;100415.34;5049067;28;20128;-70
2021/03/17 10:55:07;;;;;;;1.85;1.75;;;;;;;16.09;15.08;100417.13;5041882;28;20065;-70
2021/03/17 10:57:34;;;;;;;5.28;1.63;;;;;;;16.03;15.62;100407.03;5038052;28;20045;-70
2021/03/17 11:00:12;;;;;;;3.60;1.65;;;;;;;16.07;15.46;100403.22;5045976;28;20757;-70
2021/03/17 11:02:40;;;;;;;1.15;1.05;;;;;;;16.13;16.15;100407.22;5040270;28;20111;-68
2021/03/17 11:05:17;;;;;;;3.08;1.63;;;;;;;16.31;15.83;100403.31;5044753;28;20129;-71
2021/03/17 11:07:56;;;;;;;1.65;1.50;;;;;;;16.34;15.41;100404.84;5041953;28;20048;-69
2021/03/17 11:10:32;;;;;;;3.40;2.80;;;;;;;16.20;15.64;100400.59;5041859;28;20376;-68
2021/03/17 11:13:08;;;;;;;1.65;1.30;;;;;;;16.10;15.85;100392.50;5044323;28;20049;-68
2021/03/17 11:15:42;;;;;;;9.85;4.85;;;;;;;16.15;15.67;100397.44;5043527;28;20056;-71
2021/03/17 11:18:09;;;;;;;1.50;1.40;;;;;;;15.94;15.42;100394.53;5043521;28;20056;-73
2021/03/17 11:20:40;;;;;;;2.08;1.85;;;;;;;15.40;15.21;100397.34;5053140;28;20451;-69
2021/03/17 11:23:21;;;;;;;6.30;1.52;;;;;;;15.37;15.15;100397.56;5055500;28;20080;-69
2021/03/17 11:25:50;;;;;;;3.10;1.50;;;;;;;15.24;14.59;100386.22;5047458;28;20507;-68
2021/03/17 11:28:18;;;;;;;2.15;1.95;;;;;;;15.58;15.09;100379.50;5052231;28;20135;-73
2021/03/17 11:30:58;;;;;;;2.25;2.03;;;;;;;15.68;14.62;100378.78;5031784;28;20121;-67
2021/03/17 11:33:25;;;;;;;2.88;1.08;;;;;;;15.54;14.19;100375.38;5050172;28;20041;-67
2021/03/17 11:35:54;;;;;;;1.92;1.23;;;;;;;15.51;14.36;100373.81;5050658;28;20680;-66
2021/03/17 11:38:21;;;;;;;2.95;2.75;;;;;;;15.57;15.04;100369.94;5052451;28;20049;-68
2021/03/17 11:40:49;;;;;;;2.25;1.90;;;;;;;15.86;15.88;100363.50;5052280;28;20049;-68
2021/03/17 11:43:18;;;;;;;4.00;1.80;;;;;;;15.83;15.14;100373.41;5044619;28;20068;-67
2021/03/17 11:45:45;;;;;;;1.77;1.10;;;;;;;15.71;14.46;100364.56;5050572;28;20124;-66
2021/03/17 11:48:13;;;;;;;2.60;2.25;;;;;;;15.65;14.66;100357.13;5052589;28;20041;-70
2021/03/17 11:50:42;;;;;;;7.97;7.05;;;;;;;15.53;15.15;100364.03;5043369;28;20045;-69
2021/03/17 11:53:09;;;;;;;3.15;1.30;;;;;;;15.57;14.52;100357.63;5046530;28;20041;-66
2021/03/17 11:55:36;;;;;;;3.50;2.20;;;;;;;15.79;14.69;100359.63;5037682;28;20045;-69